createdAt,value
2018-04-10T00:00:58.275Z,25.60
2018-04-10T00:03:27.663Z,25.33
2018-04-10T00:05:56.263Z,25.50
2018-04-10T00:08:25.651Z,25.70
2018-04-10T00:10:54.102Z,25.17
2018-04-10T00:13:22.418Z,26.83
2018-04-10T00:15:51.555Z,25.13
2018-04-10T00:18:19.942Z,26.70
2018-04-10T00:20:48.526Z,27.80
2018-04-10T00:23:17.147Z,26.17
2018-04-10T00:25:46.026Z,27.00
2018-04-10T00:28:14.415Z,27.33
2018-04-10T00:30:42.684Z,28.27
2018-04-10T00:33:11.005Z,28.17
2018-04-10T00:35:40.200Z,28.50
2018-04-10T00:38:09.381Z,28.07
2018-04-10T00:40:38.401Z,29.93
2018-04-10T00:43:06.860Z,29.13
2018-04-10T00:45:35.887Z,29.13
2018-04-10T00:48:04.307Z,29.43
2018-04-10T00:50:32.586Z,30.20
2018-04-10T00:53:14.525Z,29.73
2018-04-10T00:55:43.743Z,28.60
2018-04-10T00:58:12.218Z,30.60
2018-04-10T01:00:40.704Z,28.30
2018-04-10T01:03:09.160Z,27.97
2018-04-10T01:05:38.322Z,29.80
2018-04-10T01:08:06.619Z,29.03
2018-04-10T01:10:34.897Z,28.93
2018-04-10T01:13:03.231Z,28.77
2018-04-10T01:15:31.563Z,28.57
2018-04-10T01:18:00.537Z,30.77
2018-04-10T01:20:30.219Z,28.50
2018-04-10T01:22:58.494Z,30.13
2018-04-10T01:25:26.990Z,30.40
2018-04-10T01:27:55.516Z,29.77
2018-04-10T01:30:24.540Z,29.63
2018-04-10T01:32:53.171Z,30.50
2018-04-10T01:35:21.583Z,29.90
2018-04-10T01:37:49.931Z,29.77
2018-04-10T01:40:18.237Z,30.00
2018-04-10T01:42:46.686Z,29.07
2018-04-10T01:45:14.959Z,29.27
2018-04-10T01:47:43.258Z,30.27
2018-04-10T01:50:12.641Z,30.53
2018-04-10T01:52:40.950Z,31.20
2018-04-10T01:55:09.310Z,30.63
2018-04-10T01:57:38.514Z,30.87
2018-04-10T02:00:07.519Z,31.33
2018-04-10T02:02:36.930Z,31.27
2018-04-10T02:05:05.527Z,29.97
2018-04-10T02:07:34.089Z,30.00
2018-04-10T02:10:03.143Z,29.97
2018-04-10T02:12:31.394Z,30.10
2018-04-10T02:14:59.634Z,28.90
2018-04-10T02:17:51.952Z,29.83
2018-04-10T02:20:20.618Z,31.17
2018-04-10T02:22:48.833Z,30.97
2018-04-10T02:25:18.036Z,29.43
2018-04-10T02:27:47.290Z,31.47
2018-04-10T02:30:15.668Z,29.37
2018-04-10T02:32:44.047Z,30.90
2018-04-10T02:35:12.292Z,30.53
2018-04-10T02:37:40.567Z,32.07
2018-04-10T02:40:08.822Z,32.40
2018-04-10T02:42:38.058Z,30.03
2018-04-10T02:45:06.317Z,28.90
2018-04-10T02:47:35.056Z,30.37
2018-04-10T02:50:03.659Z,30.20
2018-04-10T02:52:32.624Z,29.77
2018-04-10T02:55:01.012Z,30.10
2018-04-10T02:57:29.490Z,30.07
2018-04-10T02:59:57.760Z,29.70
2018-04-10T03:02:26.033Z,30.60
2018-04-10T03:04:54.276Z,30.30
2018-04-10T03:07:22.900Z,29.87
2018-04-10T03:09:51.126Z,30.47
2018-04-10T03:12:19.652Z,30.10
2018-04-10T03:14:47.915Z,32.50
2018-04-10T03:17:16.202Z,30.70
2018-04-10T03:19:44.437Z,30.37
2018-04-10T03:22:12.812Z,30.80
2018-04-10T03:24:41.836Z,32.10
2018-04-10T03:27:10.108Z,31.37
2018-04-10T03:29:38.577Z,31.93
2018-04-10T03:32:07.108Z,32.73
2018-04-10T03:34:35.357Z,30.97
2018-04-10T03:37:03.766Z,31.70
2018-04-10T03:39:32.160Z,30.80
2018-04-10T03:42:00.388Z,29.67
2018-04-10T03:44:28.637Z,31.40
2018-04-10T03:46:56.882Z,29.53
2018-04-10T03:49:25.333Z,29.20
2018-04-10T03:51:53.670Z,28.50
2018-04-10T03:54:22.305Z,29.53
2018-04-10T03:56:50.605Z,31.37
2018-04-10T03:59:19.026Z,30.70
2018-04-10T04:01:47.634Z,29.37
2018-04-10T04:04:16.322Z,29.70
2018-04-10T04:06:44.594Z,30.90
2018-04-10T04:09:13.222Z,30.00
2018-04-10T04:11:42.523Z,29.63
2018-04-10T04:14:10.970Z,30.63
2018-04-10T04:17:42.461Z,29.80
2018-04-10T04:21:26.432Z,29.73
2018-04-10T04:23:55.469Z,28.60
2018-04-10T04:26:23.833Z,29.37
2018-04-10T04:28:52.510Z,28.47
2018-04-10T04:31:20.873Z,29.23
2018-04-10T04:33:50.111Z,28.60
2018-04-10T04:36:18.441Z,28.20
2018-04-10T04:38:46.912Z,27.50
2018-04-10T04:41:16.298Z,28.37
2018-04-10T04:43:44.973Z,28.33
2018-04-10T04:46:13.541Z,29.20
2018-04-10T04:48:42.125Z,27.37
2018-04-10T04:51:10.547Z,27.53
2018-04-10T04:53:39.933Z,28.07
2018-04-10T04:56:08.475Z,26.27
2018-04-10T04:58:36.935Z,29.10
2018-04-10T05:01:05.982Z,27.30
2018-04-10T05:03:34.430Z,27.57
2018-04-10T05:06:02.785Z,25.87
2018-04-10T05:08:31.141Z,27.40
2018-04-10T05:10:59.697Z,26.73
2018-04-10T05:13:28.178Z,27.40
2018-04-10T05:15:56.501Z,27.33
2018-04-10T05:18:25.590Z,27.83
2018-04-10T05:20:54.836Z,26.40
2018-04-10T05:23:23.317Z,25.57
2018-04-10T05:25:51.804Z,25.33
2018-04-10T05:28:20.370Z,26.37
2018-04-10T05:30:48.739Z,25.43
2018-04-10T05:33:17.265Z,25.20
2018-04-10T05:35:45.579Z,23.20
2018-04-10T05:38:16.426Z,25.37
2018-04-10T05:40:45.934Z,23.57
2018-04-10T05:43:15.010Z,23.30
2018-04-10T05:45:44.040Z,25.20
2018-04-10T05:48:12.302Z,24.77
2018-04-10T05:50:40.762Z,23.07
2018-04-10T05:53:09.106Z,22.67
2018-04-10T05:55:37.434Z,23.33
2018-04-10T05:58:06.844Z,23.93
2018-04-10T06:00:36.062Z,22.87
2018-04-10T06:03:04.450Z,23.10
2018-04-10T06:05:33.052Z,22.53
2018-04-10T06:08:01.516Z,23.07
2018-04-10T06:10:30.210Z,22.57
2018-04-10T06:13:05.109Z,22.77
2018-04-10T06:15:33.401Z,23.47
2018-04-10T06:18:02.032Z,23.27
2018-04-10T06:20:30.390Z,22.27
2018-04-10T06:22:58.763Z,21.63
2018-04-10T06:25:27.090Z,22.10
2018-04-10T06:27:56.466Z,22.57
2018-04-10T06:30:24.937Z,21.77
2018-04-10T06:32:53.797Z,22.83
2018-04-10T06:35:22.569Z,22.07
2018-04-10T06:37:51.199Z,19.63
2018-04-10T06:40:19.851Z,21.03
2018-04-10T06:42:48.458Z,20.03
2018-04-10T06:45:16.889Z,20.33
2018-04-10T06:47:46.352Z,20.63
2018-04-10T06:50:15.693Z,19.57
2018-04-10T06:52:44.703Z,18.27
2018-04-10T06:55:13.046Z,19.20
2018-04-10T06:57:41.614Z,21.10
2018-04-10T07:00:09.930Z,19.60
2018-04-10T07:02:39.083Z,18.10
2018-04-10T07:05:07.696Z,17.33
2018-04-10T07:07:36.022Z,18.53
2018-04-10T07:10:04.379Z,16.43
2018-04-10T07:12:33.702Z,14.70
2018-04-10T07:15:02.226Z,15.57
2018-04-10T07:17:30.605Z,16.40
2018-04-10T07:19:59.274Z,16.87
2018-04-10T07:22:27.586Z,15.90
2018-04-10T07:24:57.039Z,15.27
2018-04-10T07:27:25.315Z,14.47
2018-04-10T07:29:53.765Z,14.60
2018-04-10T07:32:22.777Z,13.60
2018-04-10T07:34:51.102Z,12.80
2018-04-10T07:37:19.656Z,12.33
2018-04-10T07:39:48.089Z,11.57
2018-04-10T07:42:17.381Z,9.67
2018-04-10T07:44:45.645Z,10.37
2018-04-10T07:47:14.227Z,10.27
2018-04-10T07:49:42.682Z,9.57
2018-04-10T07:52:11.044Z,9.37
2018-04-10T07:54:39.566Z,8.40
2018-04-10T07:57:07.870Z,7.77
2018-04-10T07:59:36.946Z,8.00
2018-04-10T08:02:05.221Z,7.77
2018-04-10T08:04:33.623Z,8.10
2018-04-10T08:07:02.721Z,7.03
2018-04-10T08:09:31.787Z,6.87
2018-04-10T08:12:00.298Z,5.90
2018-04-10T08:14:29.338Z,5.20
2018-04-10T08:16:57.659Z,6.07
2018-04-10T08:19:26.111Z,6.10
2018-04-10T08:21:54.385Z,5.43
2018-04-10T08:24:24.704Z,5.67
2018-04-10T08:26:52.966Z,5.60
2018-04-10T08:29:21.275Z,5.43
2018-04-10T08:31:56.574Z,4.90
2018-04-10T08:34:25.012Z,4.93
2018-04-10T08:36:53.315Z,5.27
2018-04-10T08:39:22.328Z,5.03
2018-04-10T08:41:50.611Z,4.33
2018-04-10T08:44:18.903Z,5.23
2018-04-10T08:46:47.266Z,4.67
2018-04-10T08:49:15.995Z,4.23
2018-04-10T08:51:44.425Z,4.80
2018-04-10T08:54:13.008Z,4.93
2018-04-10T08:56:41.490Z,4.70
2018-04-10T08:59:09.870Z,4.40
2018-04-10T09:01:38.377Z,4.57
2018-04-10T09:04:07.059Z,4.80
2018-04-10T09:06:35.555Z,5.63
2018-04-10T09:09:05.485Z,5.33
2018-04-10T09:11:33.915Z,5.37
2018-04-10T09:14:02.271Z,4.80
2018-04-10T09:16:31.472Z,4.30
2018-04-10T09:19:00.507Z,4.83
2018-04-10T09:21:28.947Z,5.07
2018-04-10T09:23:58.346Z,6.60
2018-04-10T09:26:27.562Z,5.23
2018-04-10T09:28:55.955Z,5.10
2018-04-10T09:31:24.414Z,5.67
2018-04-10T09:33:53.002Z,5.77
2018-04-10T09:36:21.584Z,5.97
2018-04-10T09:38:49.859Z,6.40
2018-04-10T09:41:18.406Z,5.70
2018-04-10T09:43:46.800Z,5.70
2018-04-10T09:46:15.214Z,5.00
2018-04-10T09:48:43.685Z,5.00
2018-04-10T09:51:12.378Z,5.40
2018-04-10T09:53:41.165Z,5.23
2018-04-10T09:56:09.555Z,5.17
2018-04-10T09:58:37.904Z,5.13
2018-04-10T10:01:06.937Z,4.70
2018-04-10T10:03:35.731Z,4.90
2018-04-10T10:06:04.110Z,4.30
2018-04-10T10:08:32.541Z,4.63
2018-04-10T10:11:00.970Z,5.73
2018-04-10T10:13:29.216Z,5.60
2018-04-10T10:15:58.314Z,5.30
2018-04-10T10:18:26.610Z,5.47
2018-04-10T10:20:55.523Z,5.33
2018-04-10T10:23:24.321Z,4.63
2018-04-10T10:25:52.793Z,4.17
2018-04-10T10:28:21.092Z,4.83
2018-04-10T10:30:49.380Z,4.43
2018-04-10T10:33:17.717Z,4.33
2018-04-10T10:35:46.152Z,3.90
2018-04-10T10:38:15.659Z,3.80
2018-04-10T10:40:44.945Z,4.03
2018-04-10T10:43:13.333Z,4.17
2018-04-10T10:45:42.837Z,4.10
2018-04-10T10:48:12.002Z,4.37
2018-04-10T10:50:40.566Z,5.00
2018-04-10T10:53:08.878Z,4.90
2018-04-10T10:55:37.323Z,5.23
2018-04-10T10:58:05.787Z,4.43
2018-04-10T11:00:34.225Z,5.03
2018-04-10T11:03:02.541Z,4.93
2018-04-10T11:05:30.957Z,5.17
2018-04-10T11:07:59.240Z,4.27
2018-04-10T11:10:27.614Z,5.07
2018-04-10T11:12:55.971Z,4.20
2018-04-10T11:15:24.316Z,4.10
2018-04-10T11:17:53.482Z,5.37
2018-04-10T11:20:22.455Z,4.53
2018-04-10T11:22:51.066Z,4.03
2018-04-10T11:25:19.365Z,4.10
2018-04-10T11:27:48.491Z,4.53
2018-04-10T11:30:17.277Z,3.97
2018-04-10T11:32:45.549Z,4.17
2018-04-10T11:35:14.201Z,3.57
2018-04-10T11:37:42.805Z,3.50
2018-04-10T11:40:11.926Z,3.17
2018-04-10T11:42:40.423Z,3.20
2018-04-10T11:45:08.932Z,3.80
2018-04-10T11:47:37.602Z,3.67
2018-04-10T11:50:06.249Z,4.43
2018-04-10T11:52:35.359Z,4.23
2018-04-10T11:55:03.925Z,3.90
2018-04-10T11:57:33.622Z,3.27
2018-04-10T12:00:02.770Z,2.87
2018-04-10T12:02:31.231Z,2.80
2018-04-10T12:04:59.609Z,3.03
2018-04-10T12:07:28.811Z,3.93
2018-04-10T12:09:57.196Z,4.37
2018-04-10T12:12:25.678Z,5.37
2018-04-10T12:14:54.037Z,5.27
2018-04-10T12:17:22.423Z,4.10
2018-04-10T12:19:51.070Z,3.47
2018-04-10T12:22:19.366Z,3.77
2018-04-10T12:24:48.526Z,3.33
2018-04-10T12:27:17.046Z,3.70
2018-04-10T12:29:46.311Z,4.00
2018-04-10T12:32:14.884Z,3.90
2018-04-10T12:34:43.259Z,3.63
2018-04-10T12:37:11.653Z,3.53
2018-04-10T12:39:40.513Z,3.50
2018-04-10T12:42:08.843Z,3.07
2018-04-10T12:44:38.612Z,3.40
2018-04-10T12:47:07.273Z,3.70
2018-04-10T12:49:35.766Z,3.00
2018-04-10T12:52:04.273Z,4.93
2018-04-10T12:54:32.876Z,4.17
2018-04-10T12:57:01.194Z,3.60
2018-04-10T12:59:29.577Z,3.33
2018-04-10T13:01:58.011Z,3.43
2018-04-10T13:04:26.811Z,3.23
2018-04-10T13:06:55.365Z,3.80
2018-04-10T13:09:23.906Z,3.57
2018-04-10T13:11:52.231Z,4.10
2018-04-10T13:14:20.857Z,3.33
2018-04-10T13:16:50.346Z,3.47
2018-04-10T13:19:18.643Z,3.47
2018-04-10T13:21:47.887Z,3.60
2018-04-10T13:24:17.165Z,3.10
2018-04-10T13:26:45.557Z,3.13
2018-04-10T13:29:14.191Z,2.90
2018-04-10T13:31:42.583Z,3.07
2018-04-10T13:34:11.862Z,3.20
2018-04-10T13:36:40.477Z,3.03
2018-04-10T13:39:09.606Z,3.00
2018-04-10T13:41:38.023Z,4.73
2018-04-10T13:44:06.602Z,4.30
2018-04-10T13:46:34.863Z,3.03
2018-04-10T13:49:03.150Z,3.40
2018-04-10T13:51:31.829Z,3.10
2018-04-10T13:54:01.067Z,3.33
2018-04-10T13:56:29.611Z,3.50
2018-04-10T13:58:57.946Z,3.50
2018-04-10T14:01:26.466Z,3.17
2018-04-10T14:03:54.958Z,3.53
2018-04-10T14:06:23.406Z,3.30
2018-04-10T14:08:52.501Z,3.60
2018-04-10T14:11:20.789Z,3.30
2018-04-10T14:13:49.844Z,4.43
2018-04-10T14:16:18.146Z,4.90
2018-04-10T14:18:46.437Z,4.67
2018-04-10T14:21:15.026Z,4.90
2018-04-10T14:23:45.105Z,5.13
2018-04-10T14:26:13.474Z,5.87
2018-04-10T14:28:41.965Z,6.53
2018-04-10T14:31:10.358Z,5.47
2018-04-10T14:33:45.392Z,6.10
2018-04-10T14:36:13.839Z,6.40
2018-04-10T14:38:42.222Z,5.70
2018-04-10T14:41:10.590Z,5.70
2018-04-10T14:43:39.044Z,5.07
2018-04-10T14:46:07.401Z,5.97
2018-04-10T14:48:36.598Z,6.10
2018-04-10T14:51:05.950Z,6.47
2018-04-10T14:53:34.531Z,5.70
2018-04-10T14:56:03.149Z,5.73
2018-04-10T14:58:31.661Z,5.20
2018-04-10T15:01:00.801Z,5.67
2018-04-10T15:03:29.114Z,5.97
2018-04-10T15:05:57.590Z,5.57
2018-04-10T15:08:25.957Z,5.40
2018-04-10T15:10:54.297Z,5.60
2018-04-10T15:13:22.675Z,6.20
2018-04-10T15:15:51.063Z,5.77
2018-04-10T15:18:19.691Z,6.13
2018-04-10T15:20:48.081Z,5.90
2018-04-10T15:23:17.325Z,6.03
2018-04-10T15:25:46.040Z,5.77
2018-04-10T15:28:15.583Z,6.07
2018-04-10T15:30:43.990Z,5.77
2018-04-10T15:33:12.497Z,5.13
2018-04-10T15:35:40.881Z,5.63
2018-04-10T15:38:09.276Z,6.20
2018-04-10T15:40:37.668Z,5.37
2018-04-10T15:43:06.906Z,5.63
2018-04-10T15:45:35.435Z,7.03
2018-04-10T15:48:04.079Z,6.33
2018-04-10T15:50:32.637Z,7.00
2018-04-10T15:53:01.005Z,7.13
2018-04-10T15:55:30.102Z,6.57
2018-04-10T15:57:59.341Z,7.30
2018-04-10T16:00:27.671Z,7.20
2018-04-10T16:02:57.041Z,8.47
2018-04-10T16:05:25.513Z,9.33
2018-04-10T16:07:53.897Z,9.67
2018-04-10T16:10:22.740Z,8.97
2018-04-10T16:12:51.401Z,10.30
2018-04-10T16:15:19.785Z,9.93
2018-04-10T16:17:49.039Z,10.50
2018-04-10T16:20:17.421Z,10.43
2018-04-10T16:22:46.017Z,10.27
2018-04-10T16:25:14.827Z,10.97
2018-04-10T16:27:43.961Z,10.40
2018-04-10T16:30:12.298Z,10.43
2018-04-10T16:32:41.519Z,10.53
2018-04-10T16:35:10.103Z,10.33
2018-04-10T16:37:38.617Z,9.73
2018-04-10T16:40:07.841Z,10.57
2018-04-10T16:42:36.258Z,10.97
2018-04-10T16:45:04.699Z,11.30
2018-04-10T16:47:33.333Z,11.07
2018-04-10T16:50:01.810Z,10.60
2018-04-10T16:52:30.425Z,11.97
2018-04-10T16:54:59.644Z,11.43
2018-04-10T16:57:28.553Z,11.60
2018-04-10T16:59:59.280Z,12.20
2018-04-10T17:02:29.942Z,11.93
2018-04-10T17:05:01.209Z,11.47
2018-04-10T17:07:35.426Z,12.13
2018-04-10T17:10:14.576Z,13.23
2018-04-10T17:12:44.265Z,12.97
2018-04-10T17:15:12.941Z,14.43
2018-04-10T17:17:41.446Z,14.30
2018-04-10T17:20:09.993Z,14.57
2018-04-10T17:22:40.092Z,14.37
2018-04-10T17:25:11.113Z,13.77
2018-04-10T17:27:39.569Z,15.60
2018-04-10T17:30:08.565Z,16.53
2018-04-10T17:32:37.022Z,15.93
2018-04-10T17:35:05.450Z,15.70
2018-04-10T17:37:33.971Z,15.30
2018-04-10T17:40:10.600Z,14.77
2018-04-10T17:42:40.546Z,14.47
2018-04-10T17:45:10.704Z,15.90
2018-04-10T17:47:39.808Z,16.17
2018-04-10T17:50:08.258Z,16.93
2018-04-10T17:52:37.113Z,18.93
2018-04-10T17:55:12.778Z,20.47
2018-04-10T17:57:41.199Z,19.23
2018-04-10T18:00:10.332Z,20.63
2018-04-10T18:02:39.071Z,20.93
2018-04-10T18:05:07.676Z,19.67
2018-04-10T18:07:37.306Z,21.00
2018-04-10T18:10:06.166Z,21.03
2018-04-10T18:12:34.523Z,22.67
2018-04-10T18:15:03.100Z,22.07
2018-04-10T18:17:33.561Z,22.83
2018-04-10T18:20:02.017Z,23.90
2018-04-10T18:22:31.172Z,22.30
2018-04-10T18:25:01.109Z,23.53
2018-04-10T18:27:29.508Z,22.53
2018-04-10T18:29:58.305Z,23.13
2018-04-10T18:32:26.753Z,23.63
2018-04-10T18:34:55.161Z,23.33
2018-04-10T18:37:23.742Z,24.43
2018-04-10T18:39:52.234Z,24.13
2018-04-10T18:42:20.789Z,24.63
2018-04-10T18:44:49.241Z,25.23
2018-04-10T18:47:17.628Z,25.60
2018-04-10T18:49:46.027Z,26.40
2018-04-10T18:52:14.368Z,25.67
2018-04-10T18:54:42.765Z,26.47
2018-04-10T18:57:12.133Z,27.30
2018-04-10T18:59:40.747Z,28.80
2018-04-10T19:02:09.911Z,29.23
2018-04-10T19:04:38.369Z,26.27
2018-04-10T19:07:06.893Z,23.37
2018-04-10T19:09:36.244Z,27.20
2018-04-10T19:12:04.770Z,25.80
2018-04-10T19:14:33.525Z,28.43
2018-04-10T19:17:01.950Z,27.00
2018-04-10T19:19:30.450Z,27.20
2018-04-10T19:21:59.019Z,25.70
2018-04-10T19:24:28.304Z,23.03
2018-04-10T19:26:56.763Z,18.43
2018-04-10T19:29:25.187Z,19.97
2018-04-10T19:31:53.643Z,20.90
2018-04-10T19:34:22.074Z,18.83
2018-04-10T19:36:50.487Z,19.40
2018-04-10T19:39:18.911Z,20.17
2018-04-10T19:41:48.135Z,20.07
2018-04-10T19:44:16.530Z,30.77
2018-04-10T19:46:44.880Z,29.07
2018-04-10T19:49:13.316Z,30.50
2018-04-10T19:51:41.814Z,29.80
2018-04-10T19:54:11.175Z,28.83
2018-04-10T19:56:39.539Z,27.53
2018-04-10T19:59:07.960Z,28.90
2018-04-10T20:01:36.637Z,28.27
2018-04-10T20:04:05.411Z,29.40
2018-04-10T20:06:34.360Z,24.53
2018-04-10T20:09:03.484Z,26.27
2018-04-10T20:11:32.112Z,26.20
2018-04-10T20:14:00.737Z,23.43
2018-04-10T20:16:29.524Z,23.27
2018-04-10T20:18:58.145Z,23.60
2018-04-10T20:21:26.729Z,23.87
2018-04-10T20:23:55.216Z,23.03
2018-04-10T20:26:30.389Z,24.13
2018-04-10T20:28:58.885Z,23.87
2018-04-10T20:31:27.461Z,24.50
2018-04-10T20:33:56.683Z,24.57
2018-04-10T20:36:25.262Z,24.13
2018-04-10T20:38:53.813Z,26.17
2018-04-10T20:41:23.079Z,25.20
2018-04-10T20:43:51.752Z,27.90
2018-04-10T20:46:20.218Z,23.37
2018-04-10T20:48:48.763Z,24.37
2018-04-10T20:51:18.078Z,23.70
2018-04-10T20:53:46.579Z,22.77
2018-04-10T20:56:15.095Z,21.57
2018-04-10T20:58:43.677Z,22.00
2018-04-10T21:01:12.257Z,19.20
2018-04-10T21:03:40.982Z,21.87
2018-04-10T21:06:10.109Z,21.93
2018-04-10T21:08:38.614Z,20.03
2018-04-10T21:11:07.150Z,19.97
2018-04-10T21:13:35.738Z,18.80
2018-04-10T21:16:04.387Z,22.30
2018-04-10T21:18:32.846Z,19.47
2018-04-10T21:21:01.443Z,19.47
2018-04-10T21:23:29.919Z,17.67
2018-04-10T21:25:58.396Z,21.30
2018-04-10T21:28:26.885Z,22.63
2018-04-10T21:30:55.394Z,23.33
2018-04-10T21:33:24.602Z,22.53
2018-04-10T21:35:53.808Z,22.13
2018-04-10T21:38:22.257Z,23.93
2018-04-10T21:40:51.597Z,22.57
2018-04-10T21:43:24.732Z,21.90
2018-04-10T21:46:00.192Z,19.23
2018-04-10T21:48:28.743Z,19.50
2018-04-10T21:50:57.222Z,19.27
2018-04-10T21:53:25.833Z,20.40
2018-04-10T21:55:54.348Z,18.53
2018-04-10T21:58:22.815Z,19.03
2018-04-10T22:00:52.075Z,19.40
2018-04-10T22:03:20.505Z,19.67
2018-04-10T22:05:49.311Z,18.60
2018-04-10T22:08:18.009Z,18.97
2018-04-10T22:10:46.454Z,18.30
2018-04-10T22:13:15.596Z,21.00
2018-04-10T22:15:43.973Z,20.73
2018-04-10T22:18:12.464Z,20.87
2018-04-10T22:20:40.855Z,19.73
2018-04-10T22:23:09.406Z,20.83
2018-04-10T22:25:37.878Z,22.83
2018-04-10T22:28:06.329Z,23.63
2018-04-10T22:30:34.719Z,21.57
2018-04-10T22:33:03.105Z,20.07
2018-04-10T22:35:31.571Z,21.70
2018-04-10T22:38:00.024Z,22.07
2018-04-10T22:40:29.195Z,22.00
2018-04-10T22:42:57.669Z,22.23
2018-04-10T22:45:26.070Z,21.83
2018-04-10T22:47:55.159Z,19.57
2018-04-10T22:50:23.550Z,20.20
2018-04-10T22:52:51.920Z,19.83
2018-04-10T22:55:21.131Z,19.43
2018-04-10T22:57:50.518Z,18.50
2018-04-10T23:00:19.189Z,19.03
2018-04-10T23:02:47.607Z,18.60
2018-04-10T23:05:16.023Z,18.87
2018-04-10T23:07:44.425Z,19.87
2018-04-10T23:10:12.786Z,18.43
2018-04-10T23:12:41.168Z,17.27
2018-04-10T23:15:09.902Z,17.47
2018-04-10T23:17:39.023Z,15.97
2018-04-10T23:20:07.425Z,14.60
2018-04-10T23:22:35.894Z,14.00
2018-04-10T23:25:04.391Z,13.40
2018-04-10T23:27:32.999Z,12.77
2018-04-10T23:30:01.368Z,12.17
2018-04-10T23:32:29.938Z,12.03
2018-04-10T23:34:58.367Z,12.10
2018-04-10T23:37:26.736Z,11.17
2018-04-10T23:39:55.346Z,10.30
2018-04-10T23:42:24.508Z,9.67
2018-04-10T23:44:53.049Z,9.17
2018-04-10T23:47:21.523Z,9.30
2018-04-10T23:49:50.644Z,8.40
2018-04-10T23:52:18.963Z,8.37
2018-04-10T23:54:47.551Z,8.43
2018-04-10T23:57:16.019Z,7.90
2018-04-10T23:59:44.395Z,8.07
